sensor_id;sensor_type;location;lat;lon;timestamp;P1;durP1;ratioP1;P2;durP2;ratioP2
26201;SDS011;13944;28.562;77.188;2023-01-28T00:00:11;136.00;;;83.53;;
26201;SDS011;13944;28.562;77.188;2023-01-28T00:02:38;139.80;;;81.53;;
26201;SDS011;13944;28.562;77.188;2023-01-28T00:05:04;140.33;;;83.30;;
26201;SDS011;13944;28.562;77.188;2023-01-28T00:07:31;140.73;;;82.60;;
26201;SDS011;13944;28.562;77.188;2023-01-28T00:10:01;131.93;;;80.23;;
26201;SDS011;13944;28.562;77.188;2023-01-28T00:12:28;136.33;;;79.70;;
26201;SDS011;13944;28.562;77.188;2023-01-28T00:14:54;139.03;;;79.07;;
26201;SDS011;13944;28.562;77.188;2023-01-28T00:17:21;134.50;;;79.00;;
26201;SDS011;13944;28.562;77.188;2023-01-28T00:19:47;134.13;;;78.83;;
26201;SDS011;13944;28.562;77.188;2023-01-28T00:22:13;135.47;;;78.43;;
26201;SDS011;13944;28.562;77.188;2023-01-28T00:24:40;130.77;;;77.20;;
26201;SDS011;13944;28.562;77.188;2023-01-28T00:27:06;135.97;;;77.57;;
26201;SDS011;13944;28.562;77.188;2023-01-28T00:29:33;132.03;;;79.20;;
26201;SDS011;13944;28.562;77.188;2023-01-28T00:32:00;134.63;;;79.67;;
26201;SDS011;13944;28.562;77.188;2023-01-28T00:34:26;132.10;;;77.97;;
26201;SDS011;13944;28.562;77.188;2023-01-28T00:36:53;136.13;;;77.03;;
26201;SDS011;13944;28.562;77.188;2023-01-28T00:39:23;134.80;;;76.83;;
26201;SDS011;13944;28.562;77.188;2023-01-28T00:41:50;128.80;;;73.97;;
26201;SDS011;13944;28.562;77.188;2023-01-28T00:44:17;131.87;;;74.83;;
26201;SDS011;13944;28.562;77.188;2023-01-28T00:46:44;134.73;;;75.80;;
26201;SDS011;13944;28.562;77.188;2023-01-28T00:49:10;129.07;;;75.30;;
26201;SDS011;13944;28.562;77.188;2023-01-28T00:51:37;123.93;;;74.80;;
26201;SDS011;13944;28.562;77.188;2023-01-28T00:54:04;133.90;;;75.13;;
26201;SDS011;13944;28.562;77.188;2023-01-28T00:56:30;130.13;;;74.63;;
26201;SDS011;13944;28.562;77.188;2023-01-28T00:58:57;123.97;;;74.00;;
26201;SDS011;13944;28.562;77.188;2023-01-28T01:01:25;130.27;;;74.33;;
26201;SDS011;13944;28.562;77.188;2023-01-28T01:03:52;126.67;;;72.13;;
26201;SDS011;13944;28.562;77.188;2023-01-28T01:06:27;130.47;;;72.07;;
26201;SDS011;13944;28.562;77.188;2023-01-28T01:08:54;129.07;;;72.63;;
26201;SDS011;13944;28.562;77.188;2023-01-28T01:11:20;124.63;;;70.57;;
26201;SDS011;13944;28.562;77.188;2023-01-28T01:13:53;119.23;;;69.30;;
26201;SDS011;13944;28.562;77.188;2023-01-28T01:16:21;126.47;;;68.37;;
26201;SDS011;13944;28.562;77.188;2023-01-28T01:18:49;124.43;;;67.33;;
26201;SDS011;13944;28.562;77.188;2023-01-28T01:21:17;119.03;;;64.60;;
26201;SDS011;13944;28.562;77.188;2023-01-28T01:23:44;122.47;;;69.43;;
26201;SDS011;13944;28.562;77.188;2023-01-28T01:26:10;126.87;;;66.60;;
26201;SDS011;13944;28.562;77.188;2023-01-28T01:28:37;118.30;;;68.57;;
26201;SDS011;13944;28.562;77.188;2023-01-28T01:31:14;123.13;;;69.00;;
26201;SDS011;13944;28.562;77.188;2023-01-28T01:33:42;123.00;;;67.10;;
26201;SDS011;13944;28.562;77.188;2023-01-28T01:36:10;126.20;;;69.80;;
26201;SDS011;13944;28.562;77.188;2023-01-28T01:38:37;121.13;;;68.57;;
26201;SDS011;13944;28.562;77.188;2023-01-28T01:41:04;121.17;;;68.20;;
26201;SDS011;13944;28.562;77.188;2023-01-28T01:43:53;129.00;;;68.40;;
26201;SDS011;13944;28.562;77.188;2023-01-28T01:46:33;119.47;;;67.60;;
26201;SDS011;13944;28.562;77.188;2023-01-28T01:49:06;122.43;;;67.07;;
26201;SDS011;13944;28.562;77.188;2023-01-28T01:51:33;127.77;;;68.67;;
26201;SDS011;13944;28.562;77.188;2023-01-28T01:54:00;131.80;;;69.57;;
26201;SDS011;13944;28.562;77.188;2023-01-28T01:56:28;144.20;;;68.13;;
26201;SDS011;13944;28.562;77.188;2023-01-28T01:58:55;152.00;;;69.07;;
26201;SDS011;13944;28.562;77.188;2023-01-28T02:01:23;130.77;;;71.13;;
26201;SDS011;13944;28.562;77.188;2023-01-28T02:06:21;133.10;;;69.10;;
26201;SDS011;13944;28.562;77.188;2023-01-28T02:08:48;125.13;;;67.60;;
26201;SDS011;13944;28.562;77.188;2023-01-28T02:11:14;125.93;;;64.77;;
26201;SDS011;13944;28.562;77.188;2023-01-28T02:13:47;131.17;;;63.57;;
26201;SDS011;13944;28.562;77.188;2023-01-28T02:16:14;121.73;;;63.07;;
26201;SDS011;13944;28.562;77.188;2023-01-28T02:18:41;135.53;;;65.73;;
26201;SDS011;13944;28.562;77.188;2023-01-28T02:23:54;115.23;;;62.53;;
26201;SDS011;13944;28.562;77.188;2023-01-28T02:34:02;115.57;;;65.40;;
26201;SDS011;13944;28.562;77.188;2023-01-28T02:39:00;124.17;;;64.80;;
26201;SDS011;13944;28.562;77.188;2023-01-28T02:41:32;117.43;;;65.53;;
26201;SDS011;13944;28.562;77.188;2023-01-28T02:44:01;116.83;;;64.67;;
26201;SDS011;13944;28.562;77.188;2023-01-28T02:49:14;125.17;;;66.30;;
26201;SDS011;13944;28.562;77.188;2023-01-28T02:54:44;113.80;;;65.93;;
26201;SDS011;13944;28.562;77.188;2023-01-28T02:59:48;120.33;;;67.67;;
26201;SDS011;13944;28.562;77.188;2023-01-28T03:02:29;131.83;;;68.00;;
26201;SDS011;13944;28.562;77.188;2023-01-28T03:07:24;134.50;;;68.77;;
26201;SDS011;13944;28.562;77.188;2023-01-28T03:09:52;138.03;;;71.13;;
26201;SDS011;13944;28.562;77.188;2023-01-28T03:12:23;141.33;;;72.37;;
26201;SDS011;13944;28.562;77.188;2023-01-28T03:15:12;127.23;;;72.40;;
26201;SDS011;13944;28.562;77.188;2023-01-28T03:23:50;136.63;;;73.57;;
26201;SDS011;13944;28.562;77.188;2023-01-28T03:26:41;128.00;;;69.93;;
26201;SDS011;13944;28.562;77.188;2023-01-28T03:29:28;138.23;;;70.23;;
26201;SDS011;13944;28.562;77.188;2023-01-28T03:32:14;139.13;;;71.33;;
26201;SDS011;13944;28.562;77.188;2023-01-28T03:34:59;129.77;;;72.00;;
26201;SDS011;13944;28.562;77.188;2023-01-28T03:37:44;132.03;;;69.93;;
26201;SDS011;13944;28.562;77.188;2023-01-28T03:40:11;132.00;;;69.37;;
26201;SDS011;13944;28.562;77.188;2023-01-28T03:42:38;189.50;;;75.43;;
26201;SDS011;13944;28.562;77.188;2023-01-28T03:45:04;165.10;;;75.47;;
26201;SDS011;13944;28.562;77.188;2023-01-28T03:47:32;187.27;;;77.57;;
26201;SDS011;13944;28.562;77.188;2023-01-28T03:49:59;145.30;;;77.27;;
26201;SDS011;13944;28.562;77.188;2023-01-28T03:52:29;147.07;;;77.93;;
26201;SDS011;13944;28.562;77.188;2023-01-28T03:54:56;139.53;;;74.93;;
26201;SDS011;13944;28.562;77.188;2023-01-28T03:57:24;145.30;;;77.83;;
26201;SDS011;13944;28.562;77.188;2023-01-28T03:59:51;151.63;;;79.50;;
26201;SDS011;13944;28.562;77.188;2023-01-28T04:02:19;152.63;;;76.50;;
26201;SDS011;13944;28.562;77.188;2023-01-28T04:04:45;138.97;;;77.57;;
26201;SDS011;13944;28.562;77.188;2023-01-28T04:07:12;150.60;;;79.37;;
26201;SDS011;13944;28.562;77.188;2023-01-28T04:09:39;143.53;;;77.00;;
26201;SDS011;13944;28.562;77.188;2023-01-28T04:12:06;142.97;;;74.57;;
26201;SDS011;13944;28.562;77.188;2023-01-28T04:14:33;133.53;;;74.83;;
26201;SDS011;13944;28.562;77.188;2023-01-28T04:16:59;144.47;;;76.23;;
26201;SDS011;13944;28.562;77.188;2023-01-28T04:19:26;150.20;;;75.40;;
26201;SDS011;13944;28.562;77.188;2023-01-28T04:21:53;150.23;;;76.53;;
26201;SDS011;13944;28.562;77.188;2023-01-28T04:24:22;128.67;;;75.43;;
26201;SDS011;13944;28.562;77.188;2023-01-28T04:26:49;132.90;;;75.77;;
26201;SDS011;13944;28.562;77.188;2023-01-28T04:29:15;142.00;;;74.87;;
26201;SDS011;13944;28.562;77.188;2023-01-28T04:31:42;142.03;;;77.10;;
26201;SDS011;13944;28.562;77.188;2023-01-28T04:34:08;143.47;;;79.07;;
26201;SDS011;13944;28.562;77.188;2023-01-28T04:36:35;142.63;;;74.90;;
26201;SDS011;13944;28.562;77.188;2023-01-28T04:39:01;142.63;;;71.90;;
26201;SDS011;13944;28.562;77.188;2023-01-28T04:41:28;136.83;;;73.73;;
26201;SDS011;13944;28.562;77.188;2023-01-28T04:43:54;137.17;;;71.37;;
26201;SDS011;13944;28.562;77.188;2023-01-28T04:46:21;143.33;;;72.20;;
26201;SDS011;13944;28.562;77.188;2023-01-28T04:48:47;126.97;;;68.10;;
26201;SDS011;13944;28.562;77.188;2023-01-28T04:51:14;126.10;;;68.23;;
26201;SDS011;13944;28.562;77.188;2023-01-28T04:53:40;127.77;;;68.17;;
26201;SDS011;13944;28.562;77.188;2023-01-28T04:56:07;128.43;;;69.23;;
26201;SDS011;13944;28.562;77.188;2023-01-28T04:58:33;119.73;;;65.17;;
26201;SDS011;13944;28.562;77.188;2023-01-28T05:01:00;130.90;;;66.60;;
26201;SDS011;13944;28.562;77.188;2023-01-28T05:03:26;132.57;;;68.33;;
26201;SDS011;13944;28.562;77.188;2023-01-28T05:05:53;120.13;;;65.93;;
26201;SDS011;13944;28.562;77.188;2023-01-28T05:08:20;129.97;;;70.20;;
26201;SDS011;13944;28.562;77.188;2023-01-28T05:10:46;121.47;;;66.73;;
26201;SDS011;13944;28.562;77.188;2023-01-28T05:13:13;126.33;;;68.17;;
26201;SDS011;13944;28.562;77.188;2023-01-28T05:15:39;125.63;;;67.27;;
26201;SDS011;13944;28.562;77.188;2023-01-28T05:18:06;134.03;;;69.47;;
26201;SDS011;13944;28.562;77.188;2023-01-28T05:20:32;134.70;;;70.67;;
26201;SDS011;13944;28.562;77.188;2023-01-28T05:22:59;131.83;;;72.03;;
26201;SDS011;13944;28.562;77.188;2023-01-28T05:25:25;134.10;;;69.87;;
26201;SDS011;13944;28.562;77.188;2023-01-28T05:27:52;128.03;;;68.33;;
26201;SDS011;13944;28.562;77.188;2023-01-28T05:30:19;120.67;;;66.30;;
26201;SDS011;13944;28.562;77.188;2023-01-28T05:32:46;121.03;;;66.67;;
26201;SDS011;13944;28.562;77.188;2023-01-28T05:35:12;115.73;;;66.10;;
26201;SDS011;13944;28.562;77.188;2023-01-28T05:37:39;128.47;;;69.00;;
26201;SDS011;13944;28.562;77.188;2023-01-28T05:40:06;128.20;;;65.50;;
26201;SDS011;13944;28.562;77.188;2023-01-28T05:42:32;116.03;;;65.63;;
26201;SDS011;13944;28.562;77.188;2023-01-28T05:44:59;120.90;;;67.87;;
26201;SDS011;13944;28.562;77.188;2023-01-28T05:47:25;116.47;;;66.60;;
26201;SDS011;13944;28.562;77.188;2023-01-28T05:49:52;121.93;;;67.20;;
26201;SDS011;13944;28.562;77.188;2023-01-28T05:52:18;125.87;;;68.23;;
26201;SDS011;13944;28.562;77.188;2023-01-28T05:54:45;124.10;;;65.80;;
26201;SDS011;13944;28.562;77.188;2023-01-28T05:57:11;127.47;;;67.87;;
26201;SDS011;13944;28.562;77.188;2023-01-28T05:59:38;116.07;;;63.33;;
26201;SDS011;13944;28.562;77.188;2023-01-28T06:02:04;114.43;;;62.97;;
26201;SDS011;13944;28.562;77.188;2023-01-28T06:04:31;112.57;;;63.20;;
26201;SDS011;13944;28.562;77.188;2023-01-28T06:06:58;124.53;;;65.50;;
26201;SDS011;13944;28.562;77.188;2023-01-28T06:09:24;115.67;;;65.73;;
26201;SDS011;13944;28.562;77.188;2023-01-28T06:11:51;115.40;;;64.03;;
26201;SDS011;13944;28.562;77.188;2023-01-28T06:14:18;110.03;;;62.20;;
26201;SDS011;13944;28.562;77.188;2023-01-28T06:16:44;111.13;;;61.67;;
26201;SDS011;13944;28.562;77.188;2023-01-28T06:19:11;123.50;;;66.50;;
26201;SDS011;13944;28.562;77.188;2023-01-28T06:21:37;125.60;;;68.70;;
26201;SDS011;13944;28.562;77.188;2023-01-28T06:24:04;121.40;;;66.63;;
26201;SDS011;13944;28.562;77.188;2023-01-28T06:26:30;132.73;;;72.03;;
26201;SDS011;13944;28.562;77.188;2023-01-28T06:28:57;127.33;;;71.47;;
26201;SDS011;13944;28.562;77.188;2023-01-28T06:31:24;121.77;;;69.27;;
26201;SDS011;13944;28.562;77.188;2023-01-28T06:33:50;119.70;;;68.27;;
26201;SDS011;13944;28.562;77.188;2023-01-28T06:36:17;134.50;;;74.70;;
26201;SDS011;13944;28.562;77.188;2023-01-28T06:38:43;122.97;;;71.03;;
26201;SDS011;13944;28.562;77.188;2023-01-28T06:41:10;137.60;;;76.97;;
26201;SDS011;13944;28.562;77.188;2023-01-28T06:43:37;139.90;;;76.40;;
26201;SDS011;13944;28.562;77.188;2023-01-28T06:46:07;135.03;;;73.37;;
26201;SDS011;13944;28.562;77.188;2023-01-28T06:48:33;126.47;;;72.30;;
26201;SDS011;13944;28.562;77.188;2023-01-28T06:51:00;130.33;;;71.67;;
26201;SDS011;13944;28.562;77.188;2023-01-28T06:53:26;133.17;;;72.57;;
26201;SDS011;13944;28.562;77.188;2023-01-28T06:55:53;128.80;;;70.40;;
26201;SDS011;13944;28.562;77.188;2023-01-28T06:58:19;127.43;;;68.13;;
26201;SDS011;13944;28.562;77.188;2023-01-28T07:00:46;128.23;;;69.80;;
26201;SDS011;13944;28.562;77.188;2023-01-28T07:03:13;125.40;;;68.23;;
26201;SDS011;13944;28.562;77.188;2023-01-28T07:05:39;119.50;;;66.70;;
26201;SDS011;13944;28.562;77.188;2023-01-28T07:08:06;118.93;;;68.53;;
26201;SDS011;13944;28.562;77.188;2023-01-28T07:10:33;111.17;;;64.00;;
26201;SDS011;13944;28.562;77.188;2023-01-28T07:12:59;110.87;;;63.03;;
26201;SDS011;13944;28.562;77.188;2023-01-28T07:15:26;120.87;;;67.40;;
26201;SDS011;13944;28.562;77.188;2023-01-28T07:17:53;125.27;;;65.87;;
26201;SDS011;13944;28.562;77.188;2023-01-28T07:20:19;123.30;;;66.87;;
26201;SDS011;13944;28.562;77.188;2023-01-28T07:22:46;107.90;;;65.80;;
26201;SDS011;13944;28.562;77.188;2023-01-28T07:25:13;116.57;;;64.60;;
26201;SDS011;13944;28.562;77.188;2023-01-28T07:27:50;115.87;;;66.20;;
26201;SDS011;13944;28.562;77.188;2023-01-28T07:30:18;115.10;;;67.60;;
26201;SDS011;13944;28.562;77.188;2023-01-28T07:32:45;112.70;;;66.20;;
26201;SDS011;13944;28.562;77.188;2023-01-28T07:35:12;116.07;;;68.80;;
26201;SDS011;13944;28.562;77.188;2023-01-28T07:37:40;118.53;;;64.90;;
26201;SDS011;13944;28.562;77.188;2023-01-28T07:40:07;105.63;;;63.87;;
26201;SDS011;13944;28.562;77.188;2023-01-28T07:42:33;112.13;;;64.40;;
26201;SDS011;13944;28.562;77.188;2023-01-28T07:45:00;114.00;;;64.53;;
26201;SDS011;13944;28.562;77.188;2023-01-28T07:47:27;117.00;;;62.60;;
26201;SDS011;13944;28.562;77.188;2023-01-28T07:49:53;110.73;;;60.53;;
26201;SDS011;13944;28.562;77.188;2023-01-28T07:52:20;111.47;;;60.57;;
26201;SDS011;13944;28.562;77.188;2023-01-28T07:54:47;123.07;;;63.57;;
26201;SDS011;13944;28.562;77.188;2023-01-28T07:57:13;112.47;;;60.80;;
26201;SDS011;13944;28.562;77.188;2023-01-28T07:59:48;101.27;;;60.37;;
26201;SDS011;13944;28.562;77.188;2023-01-28T08:02:15;107.30;;;59.93;;
26201;SDS011;13944;28.562;77.188;2023-01-28T08:04:42;108.30;;;61.60;;
26201;SDS011;13944;28.562;77.188;2023-01-28T08:07:08;100.83;;;60.73;;
26201;SDS011;13944;28.562;77.188;2023-01-28T08:09:35;106.13;;;64.37;;
26201;SDS011;13944;28.562;77.188;2023-01-28T08:12:02;98.23;;;61.07;;
26201;SDS011;13944;28.562;77.188;2023-01-28T08:14:28;109.37;;;61.77;;
26201;SDS011;13944;28.562;77.188;2023-01-28T08:16:56;113.93;;;62.47;;
26201;SDS011;13944;28.562;77.188;2023-01-28T08:19:22;113.87;;;63.63;;
26201;SDS011;13944;28.562;77.188;2023-01-28T08:21:49;116.00;;;63.83;;
26201;SDS011;13944;28.562;77.188;2023-01-28T08:24:16;109.93;;;61.37;;
26201;SDS011;13944;28.562;77.188;2023-01-28T08:26:42;104.67;;;62.00;;
26201;SDS011;13944;28.562;77.188;2023-01-28T08:29:10;109.40;;;62.77;;
26201;SDS011;13944;28.562;77.188;2023-01-28T08:31:37;114.17;;;61.43;;
26201;SDS011;13944;28.562;77.188;2023-01-28T08:34:03;104.17;;;62.03;;
26201;SDS011;13944;28.562;77.188;2023-01-28T08:36:30;108.30;;;62.70;;
26201;SDS011;13944;28.562;77.188;2023-01-28T08:38:57;109.23;;;65.37;;
26201;SDS011;13944;28.562;77.188;2023-01-28T08:41:23;112.57;;;63.70;;
26201;SDS011;13944;28.562;77.188;2023-01-28T08:43:50;122.20;;;63.20;;
26201;SDS011;13944;28.562;77.188;2023-01-28T08:46:16;109.23;;;63.27;;
26201;SDS011;13944;28.562;77.188;2023-01-28T08:48:43;105.77;;;61.77;;
26201;SDS011;13944;28.562;77.188;2023-01-28T08:51:09;109.03;;;62.67;;
26201;SDS011;13944;28.562;77.188;2023-01-28T08:53:36;115.93;;;63.60;;
26201;SDS011;13944;28.562;77.188;2023-01-28T08:56:03;102.40;;;55.63;;
26201;SDS011;13944;28.562;77.188;2023-01-28T08:58:29;102.00;;;56.17;;
26201;SDS011;13944;28.562;77.188;2023-01-28T09:00:56;91.53;;;55.33;;
26201;SDS011;13944;28.562;77.188;2023-01-28T09:03:23;96.77;;;57.13;;
26201;SDS011;13944;28.562;77.188;2023-01-28T09:05:49;96.63;;;56.93;;
26201;SDS011;13944;28.562;77.188;2023-01-28T09:08:16;105.73;;;60.83;;
26201;SDS011;13944;28.562;77.188;2023-01-28T09:10:43;111.87;;;63.77;;
26201;SDS011;13944;28.562;77.188;2023-01-28T09:13:10;98.73;;;60.10;;
26201;SDS011;13944;28.562;77.188;2023-01-28T09:15:38;108.20;;;61.37;;
26201;SDS011;13944;28.562;77.188;2023-01-28T09:18:05;110.03;;;60.63;;
26201;SDS011;13944;28.562;77.188;2023-01-28T09:20:32;111.27;;;62.97;;
26201;SDS011;13944;28.562;77.188;2023-01-28T09:22:59;108.03;;;63.97;;
26201;SDS011;13944;28.562;77.188;2023-01-28T09:25:26;125.60;;;66.63;;
26201;SDS011;13944;28.562;77.188;2023-01-28T09:27:52;113.20;;;64.03;;
26201;SDS011;13944;28.562;77.188;2023-01-28T09:30:19;103.90;;;61.20;;
26201;SDS011;13944;28.562;77.188;2023-01-28T09:32:48;113.43;;;62.77;;
26201;SDS011;13944;28.562;77.188;2023-01-28T09:35:15;104.40;;;63.23;;
26201;SDS011;13944;28.562;77.188;2023-01-28T09:37:42;113.83;;;63.20;;
26201;SDS011;13944;28.562;77.188;2023-01-28T09:40:19;127.30;;;66.73;;
26201;SDS011;13944;28.562;77.188;2023-01-28T09:45:24;119.93;;;63.57;;
26201;SDS011;13944;28.562;77.188;2023-01-28T09:47:55;111.67;;;64.23;;
26201;SDS011;13944;28.562;77.188;2023-01-28T09:50:25;116.57;;;62.87;;
26201;SDS011;13944;28.562;77.188;2023-01-28T09:52:54;108.87;;;63.37;;
26201;SDS011;13944;28.562;77.188;2023-01-28T09:57:51;105.40;;;62.07;;
26201;SDS011;13944;28.562;77.188;2023-01-28T10:00:23;110.50;;;60.03;;
26201;SDS011;13944;28.562;77.188;2023-01-28T10:03:06;100.97;;;57.57;;
26201;SDS011;13944;28.562;77.188;2023-01-28T10:11:02;98.40;;;55.63;;
26201;SDS011;13944;28.562;77.188;2023-01-28T10:16:48;103.00;;;55.93;;
26201;SDS011;13944;28.562;77.188;2023-01-28T10:18:57;109.23;;;55.90;;
26201;SDS011;13944;28.562;77.188;2023-01-28T10:21:36;95.60;;;54.00;;
26201;SDS011;13944;28.562;77.188;2023-01-28T10:24:05;94.30;;;52.90;;
26201;SDS011;13944;28.562;77.188;2023-01-28T10:26:36;94.57;;;54.57;;
26201;SDS011;13944;28.562;77.188;2023-01-28T10:29:26;102.93;;;56.10;;
26201;SDS011;13944;28.562;77.188;2023-01-28T10:31:58;89.13;;;54.93;;
26201;SDS011;13944;28.562;77.188;2023-01-28T10:34:25;99.40;;;53.93;;
26201;SDS011;13944;28.562;77.188;2023-01-28T10:36:52;94.07;;;55.50;;
26201;SDS011;13944;28.562;77.188;2023-01-28T10:39:21;90.63;;;53.07;;
26201;SDS011;13944;28.562;77.188;2023-01-28T10:41:49;96.57;;;53.77;;
26201;SDS011;13944;28.562;77.188;2023-01-28T10:44:37;98.33;;;55.07;;
26201;SDS011;13944;28.562;77.188;2023-01-28T10:47:09;93.63;;;52.90;;
26201;SDS011;13944;28.562;77.188;2023-01-28T10:49:38;96.90;;;56.67;;
26201;SDS011;13944;28.562;77.188;2023-01-28T10:52:13;100.90;;;55.87;;
26201;SDS011;13944;28.562;77.188;2023-01-28T10:54:40;106.30;;;58.73;;
26201;SDS011;13944;28.562;77.188;2023-01-28T10:57:09;101.50;;;59.70;;
26201;SDS011;13944;28.562;77.188;2023-01-28T10:59:37;109.10;;;60.33;;
26201;SDS011;13944;28.562;77.188;2023-01-28T11:02:27;111.60;;;60.90;;
26201;SDS011;13944;28.562;77.188;2023-01-28T11:05:00;115.97;;;63.13;;
26201;SDS011;13944;28.562;77.188;2023-01-28T11:07:27;112.03;;;61.10;;
26201;SDS011;13944;28.562;77.188;2023-01-28T11:09:53;112.93;;;64.07;;
26201;SDS011;13944;28.562;77.188;2023-01-28T11:12:21;100.70;;;61.43;;
26201;SDS011;13944;28.562;77.188;2023-01-28T11:14:51;108.70;;;64.33;;
26201;SDS011;13944;28.562;77.188;2023-01-28T11:17:18;116.40;;;66.07;;
26201;SDS011;13944;28.562;77.188;2023-01-28T11:19:46;125.60;;;67.13;;
26201;SDS011;13944;28.562;77.188;2023-01-28T11:22:14;117.43;;;66.87;;
26201;SDS011;13944;28.562;77.188;2023-01-28T11:24:45;132.63;;;68.70;;
26201;SDS011;13944;28.562;77.188;2023-01-28T11:27:14;128.10;;;69.50;;
26201;SDS011;13944;28.562;77.188;2023-01-28T11:29:41;118.37;;;67.17;;
26201;SDS011;13944;28.562;77.188;2023-01-28T11:32:18;120.50;;;66.20;;
26201;SDS011;13944;28.562;77.188;2023-01-28T11:34:52;117.57;;;69.90;;
26201;SDS011;13944;28.562;77.188;2023-01-28T11:37:22;124.47;;;68.17;;
26201;SDS011;13944;28.562;77.188;2023-01-28T11:39:59;128.87;;;68.70;;
26201;SDS011;13944;28.562;77.188;2023-01-28T11:42:26;117.10;;;66.13;;
26201;SDS011;13944;28.562;77.188;2023-01-28T11:44:53;125.53;;;66.00;;
26201;SDS011;13944;28.562;77.188;2023-01-28T11:52:38;124.27;;;66.50;;
26201;SDS011;13944;28.562;77.188;2023-01-28T12:00:51;117.97;;;66.93;;
26201;SDS011;13944;28.562;77.188;2023-01-28T12:08:42;137.77;;;72.60;;
26201;SDS011;13944;28.562;77.188;2023-01-28T12:11:27;132.67;;;72.73;;
26201;SDS011;13944;28.562;77.188;2023-01-28T12:14:28;148.77;;;78.93;;
26201;SDS011;13944;28.562;77.188;2023-01-28T12:27:23;155.40;;;87.43;;
26201;SDS011;13944;28.562;77.188;2023-01-28T12:32:29;159.43;;;90.67;;
26201;SDS011;13944;28.562;77.188;2023-01-28T12:37:41;154.80;;;89.80;;
26201;SDS011;13944;28.562;77.188;2023-01-28T12:42:45;162.00;;;88.07;;
26201;SDS011;13944;28.562;77.188;2023-01-28T12:47:48;169.10;;;89.23;;
26201;SDS011;13944;28.562;77.188;2023-01-28T12:51:17;165.53;;;91.77;;
26201;SDS011;13944;28.562;77.188;2023-01-28T12:55:55;177.10;;;94.77;;
26201;SDS011;13944;28.562;77.188;2023-01-28T12:58:30;175.80;;;95.37;;
26201;SDS011;13944;28.562;77.188;2023-01-28T13:01:02;175.60;;;97.60;;
26201;SDS011;13944;28.562;77.188;2023-01-28T13:06:22;177.20;;;99.73;;
26201;SDS011;13944;28.562;77.188;2023-01-28T13:08:50;163.77;;;96.53;;
26201;SDS011;13944;28.562;77.188;2023-01-28T13:11:20;158.57;;;92.50;;
26201;SDS011;13944;28.562;77.188;2023-01-28T13:13:48;155.80;;;94.63;;
26201;SDS011;13944;28.562;77.188;2023-01-28T13:16:14;166.67;;;96.60;;
26201;SDS011;13944;28.562;77.188;2023-01-28T13:28:46;192.67;;;112.83;;
26201;SDS011;13944;28.562;77.188;2023-01-28T13:31:14;189.93;;;112.63;;
26201;SDS011;13944;28.562;77.188;2023-01-28T13:38:47;209.77;;;123.77;;
26201;SDS011;13944;28.562;77.188;2023-01-28T13:41:14;202.67;;;122.70;;
26201;SDS011;13944;28.562;77.188;2023-01-28T13:43:40;221.57;;;126.13;;
26201;SDS011;13944;28.562;77.188;2023-01-28T13:46:11;220.07;;;133.70;;
26201;SDS011;13944;28.562;77.188;2023-01-28T13:51:09;213.87;;;133.23;;
26201;SDS011;13944;28.562;77.188;2023-01-28T13:54:20;232.50;;;139.67;;
26201;SDS011;13944;28.562;77.188;2023-01-28T13:56:30;248.10;;;152.87;;
26201;SDS011;13944;28.562;77.188;2023-01-28T14:01:29;264.13;;;165.23;;
26201;SDS011;13944;28.562;77.188;2023-01-28T14:09:19;279.57;;;187.67;;
26201;SDS011;13944;28.562;77.188;2023-01-28T14:11:59;276.23;;;190.80;;
26201;SDS011;13944;28.562;77.188;2023-01-28T14:19:37;312.17;;;221.00;;
26201;SDS011;13944;28.562;77.188;2023-01-28T14:22:15;322.70;;;226.63;;
26201;SDS011;13944;28.562;77.188;2023-01-28T14:24:43;343.37;;;235.10;;
26201;SDS011;13944;28.562;77.188;2023-01-28T14:27:26;338.93;;;240.10;;
26201;SDS011;13944;28.562;77.188;2023-01-28T14:32:21;351.97;;;251.30;;
26201;SDS011;13944;28.562;77.188;2023-01-28T14:34:54;361.37;;;265.17;;
26201;SDS011;13944;28.562;77.188;2023-01-28T14:37:23;372.23;;;263.80;;
26201;SDS011;13944;28.562;77.188;2023-01-28T14:39:51;367.70;;;275.53;;
26201;SDS011;13944;28.562;77.188;2023-01-28T14:42:29;376.57;;;280.47;;
26201;SDS011;13944;28.562;77.188;2023-01-28T14:50:06;365.93;;;265.03;;
26201;SDS011;13944;28.562;77.188;2023-01-28T14:55:26;353.63;;;257.13;;
26201;SDS011;13944;28.562;77.188;2023-01-28T14:57:55;350.03;;;252.57;;
26201;SDS011;13944;28.562;77.188;2023-01-28T15:00:24;364.43;;;257.00;;
26201;SDS011;13944;28.562;77.188;2023-01-28T15:02:51;359.47;;;264.73;;
26201;SDS011;13944;28.562;77.188;2023-01-28T15:05:20;392.70;;;273.50;;
26201;SDS011;13944;28.562;77.188;2023-01-28T15:07:47;390.77;;;277.70;;
26201;SDS011;13944;28.562;77.188;2023-01-28T15:10:19;384.17;;;269.40;;
26201;SDS011;13944;28.562;77.188;2023-01-28T15:12:47;398.87;;;278.80;;
26201;SDS011;13944;28.562;77.188;2023-01-28T15:17:43;371.83;;;261.50;;
26201;SDS011;13944;28.562;77.188;2023-01-28T15:20:14;361.07;;;263.70;;
26201;SDS011;13944;28.562;77.188;2023-01-28T15:22:41;378.30;;;268.20;;
26201;SDS011;13944;28.562;77.188;2023-01-28T15:25:15;371.00;;;263.23;;
26201;SDS011;13944;28.562;77.188;2023-01-28T15:27:42;361.30;;;255.87;;
26201;SDS011;13944;28.562;77.188;2023-01-28T15:30:22;351.03;;;252.83;;
26201;SDS011;13944;28.562;77.188;2023-01-28T15:32:56;344.13;;;246.10;;
26201;SDS011;13944;28.562;77.188;2023-01-28T15:35:23;357.73;;;246.23;;
26201;SDS011;13944;28.562;77.188;2023-01-28T15:37:50;343.73;;;239.37;;
26201;SDS011;13944;28.562;77.188;2023-01-28T15:40:17;326.00;;;233.97;;
26201;SDS011;13944;28.562;77.188;2023-01-28T15:42:48;337.77;;;231.00;;
26201;SDS011;13944;28.562;77.188;2023-01-28T15:45:16;345.47;;;239.10;;
26201;SDS011;13944;28.562;77.188;2023-01-28T15:47:43;345.80;;;239.87;;
26201;SDS011;13944;28.562;77.188;2023-01-28T15:50:19;353.03;;;239.03;;
26201;SDS011;13944;28.562;77.188;2023-01-28T15:52:47;352.67;;;233.77;;
26201;SDS011;13944;28.562;77.188;2023-01-28T15:55:27;351.83;;;236.57;;
26201;SDS011;13944;28.562;77.188;2023-01-28T15:57:55;339.90;;;228.97;;
26201;SDS011;13944;28.562;77.188;2023-01-28T16:00:22;335.17;;;225.70;;
26201;SDS011;13944;28.562;77.188;2023-01-28T16:02:51;327.80;;;219.70;;
26201;SDS011;13944;28.562;77.188;2023-01-28T16:05:24;327.27;;;215.97;;
26201;SDS011;13944;28.562;77.188;2023-01-28T16:07:51;327.07;;;215.70;;
26201;SDS011;13944;28.562;77.188;2023-01-28T16:10:22;328.43;;;213.80;;
26201;SDS011;13944;28.562;77.188;2023-01-28T16:12:51;314.40;;;209.63;;
26201;SDS011;13944;28.562;77.188;2023-01-28T16:15:19;312.47;;;200.57;;
26201;SDS011;13944;28.562;77.188;2023-01-28T16:17:46;319.93;;;197.40;;